CheckWX is a tool to help pilots better visualize weather data.  It is not intended as a substitute for an official pre-flight weather briefing.

15:02:55 UTC

ETIC METAR
Grafenwohr Army Air Field Airport
Germany
Current

1 hour ago

ETIC 231356Z AUTO 32006KT 9999 BKN055 19/07 A3005 RMK AO2 SLP178 T01860067 $
Observed
May-23 @ 13:56 UTC
Wind
  • 320° at 6 KTS
Visibility
10,000+ meters
Flight Rules
VFR
Cloud Levels
  • Broken at 5,500' AGL
Temperature
19°C / 66°F
Dewpoint
C / 45°F
Humidity
46%
Altimeter
30.05" Hg
Pressure
1017.62 hPa
Previous

2 hours ago

ETIC 231256Z AUTO 31003KT 9999 BKN050 18/06 A3006 RMK AO2 SLP182 T01810060 $
Observed
May-23 @ 12:56 UTC
Wind
  • 310° at 3 KTS
Visibility
10,000+ meters
Flight Rules
VFR
Cloud Levels
  • Broken at 5,000' AGL
Temperature
18°C / 64°F
Dewpoint
C / 43°F
Humidity
46%
Altimeter
30.06" Hg
Pressure
1017.92 hPa
Previous

3 hours ago

ETIC 231156Z AUTO 32004KT 9999 SCT049 18/06 A3008 RMK AO2 SLP188 T01790064 10181 20083 57011 $
Observed
May-23 @ 11:56 UTC
Wind
  • 320° at 4 KTS
Visibility
10,000+ meters
Flight Rules
VFR
Cloud Levels
  • Scattered at 4,900' AGL
Temperature
18°C / 64°F
Dewpoint
C / 43°F
Humidity
46%
Altimeter
30.08" Hg
Pressure
1018.62 hPa